Pagrindinis puslapis
METAR-TAF:

METAR-TAF

Oro uostai :

Dubajaus tarptautinis oro uostas

Dubajus, Jungtiniai Arabų Emyratai

platuma: 25-15-10N, ilguma: 055-21-52E, Aukštis: 8 m

Dabartinis oras

Ataskaita buvo paskelbta 14 minutes, ne 03:00 UTC
Vėjas 5 kt iš Šiaurės Rytų, svyruoja nuo Šiaurės ir Rytų
Temperatūra 17°C
Drėgmė 59%
Slėgis 1019 hPa
Matomumas 10 km arba daugiau
nėra debesų žemiau 1500 m ir nėra kamuolinių lietaus debesų

METAR: OMDB 240300Z 04005KT 010V090 CAVOK 17/09 Q1019 NOSIG

Laikas: 07:14 (03:14 UTC)

Prognozė

Ataskaita buvo paskelbta 4 valandos ir 14 minutes, ne 23:00 UTC
Prognozė galioja nuo 24 metu 00 UTC su 25 metu 06 UTC
Vėjas 5 kt iš Rytų/Šiaurės Rytų
Matomumas 10 km arba daugiau
nėra debesų žemiau 1500 m ir nėra kamuolinių lietaus debesų
Tapsmas
nuo 24 metu 08 UTC su 24 metu 10 UTC
Vėjas 12 kt iš Šiaurės/Šiaurės Vakarų
Tapsmas
nuo 24 metu 16 UTC su 24 metu 18 UTC
Vėjas 5 kt iš Rytų

TAF: OMDB 232300Z 2400/2506 06005KT CAVOK BECMG 2408/2410 34012KT BECMG 2416/2418 09005KT

Orai ataskaitas ir orų prognozės (METAR, TAF).

turimą stotys yra geltonos ir raudonos taškus žemėlapyje.

Perkelti pele per norėdami pamatyti stoties vardą.

Tada spustelėkite, norėdami matyti oro stebėjimo ir prognozės.

Norėdami pakeisti žemėlapį: spustelėkite ant žalios mygtukų su juodo kryžiaus žemyn,; žalią mygtuką su brūkšneliu, jei norite nutolinti; arba žalių rodyklių gretimoms žemėlapius.


METAR-TAF: